sensor_id;sensor_type;location;lat;lon;timestamp;P1;durP1;ratioP1;P2;durP2;ratioP2
63534;SDS011;55128;50.230;18.944;2022-09-27T00:03:17;54.70;;;37.15;;
63534;SDS011;55128;50.230;18.944;2022-09-27T00:08:17;55.05;;;38.55;;
63534;SDS011;55128;50.230;18.944;2022-09-27T00:13:19;59.35;;;38.40;;
63534;SDS011;55128;50.230;18.944;2022-09-27T00:18:19;53.47;;;39.40;;
63534;SDS011;55128;50.230;18.944;2022-09-27T00:23:20;54.58;;;36.72;;
63534;SDS011;55128;50.230;18.944;2022-09-27T00:28:20;50.42;;;36.90;;
63534;SDS011;55128;50.230;18.944;2022-09-27T00:33:21;53.58;;;37.47;;
63534;SDS011;55128;50.230;18.944;2022-09-27T00:38:22;73.65;;;44.25;;
63534;SDS011;55128;50.230;18.944;2022-09-27T00:43:22;65.57;;;38.58;;
63534;SDS011;55128;50.230;18.944;2022-09-27T00:48:23;65.63;;;39.50;;
63534;SDS011;55128;50.230;18.944;2022-09-27T00:53:33;70.32;;;46.63;;
63534;SDS011;55128;50.230;18.944;2022-09-27T00:58:44;54.72;;;32.53;;
63534;SDS011;55128;50.230;18.944;2022-09-27T01:08:59;70.32;;;44.65;;
63534;SDS011;55128;50.230;18.944;2022-09-27T01:24:51;61.95;;;41.67;;
63534;SDS011;55128;50.230;18.944;2022-09-27T01:40:16;60.47;;;38.27;;
63534;SDS011;55128;50.230;18.944;2022-09-27T01:51:18;58.45;;;36.85;;
63534;SDS011;55128;50.230;18.944;2022-09-27T01:56:30;62.17;;;37.15;;
63534;SDS011;55128;50.230;18.944;2022-09-27T02:01:33;66.28;;;40.40;;
63534;SDS011;55128;50.230;18.944;2022-09-27T02:06:39;68.32;;;36.88;;
63534;SDS011;55128;50.230;18.944;2022-09-27T02:11:47;58.15;;;34.13;;
63534;SDS011;55128;50.230;18.944;2022-09-27T02:33:41;44.50;;;25.38;;
63534;SDS011;55128;50.230;18.944;2022-09-27T02:38:46;32.72;;;23.02;;
63534;SDS011;55128;50.230;18.944;2022-09-27T02:43:48;37.75;;;25.27;;
63534;SDS011;55128;50.230;18.944;2022-09-27T02:59:26;36.90;;;24.67;;
63534;SDS011;55128;50.230;18.944;2022-09-27T03:04:35;36.58;;;25.42;;
63534;SDS011;55128;50.230;18.944;2022-09-27T03:09:56;37.08;;;27.08;;
63534;SDS011;55128;50.230;18.944;2022-09-27T03:14:58;44.92;;;25.98;;
63534;SDS011;55128;50.230;18.944;2022-09-27T03:19:59;40.92;;;25.58;;
63534;SDS011;55128;50.230;18.944;2022-09-27T03:25:00;35.08;;;24.42;;
63534;SDS011;55128;50.230;18.944;2022-09-27T03:30:01;36.42;;;25.42;;
63534;SDS011;55128;50.230;18.944;2022-09-27T03:35:02;51.85;;;26.80;;
63534;SDS011;55128;50.230;18.944;2022-09-27T03:40:03;40.20;;;26.98;;
63534;SDS011;55128;50.230;18.944;2022-09-27T03:45:04;43.13;;;26.02;;
63534;SDS011;55128;50.230;18.944;2022-09-27T03:50:05;45.50;;;26.67;;
63534;SDS011;55128;50.230;18.944;2022-09-27T03:55:07;44.50;;;28.75;;
63534;SDS011;55128;50.230;18.944;2022-09-27T04:00:09;49.05;;;30.08;;
63534;SDS011;55128;50.230;18.944;2022-09-27T04:05:10;48.47;;;29.52;;
63534;SDS011;55128;50.230;18.944;2022-09-27T04:10:12;47.22;;;28.80;;
63534;SDS011;55128;50.230;18.944;2022-09-27T04:15:12;47.08;;;29.20;;
63534;SDS011;55128;50.230;18.944;2022-09-27T04:20:13;45.72;;;28.08;;
63534;SDS011;55128;50.230;18.944;2022-09-27T04:25:14;37.40;;;26.70;;
63534;SDS011;55128;50.230;18.944;2022-09-27T04:30:14;46.25;;;31.23;;
63534;SDS011;55128;50.230;18.944;2022-09-27T04:35:15;48.58;;;32.05;;
63534;SDS011;55128;50.230;18.944;2022-09-27T04:40:34;60.63;;;44.45;;
63534;SDS011;55128;50.230;18.944;2022-09-27T04:45:35;62.25;;;34.92;;
63534;SDS011;55128;50.230;18.944;2022-09-27T04:50:35;73.18;;;35.97;;
63534;SDS011;55128;50.230;18.944;2022-09-27T04:55:36;69.75;;;32.70;;
63534;SDS011;55128;50.230;18.944;2022-09-27T05:00:37;75.15;;;34.95;;
63534;SDS011;55128;50.230;18.944;2022-09-27T05:05:38;72.57;;;35.63;;
63534;SDS011;55128;50.230;18.944;2022-09-27T05:10:38;74.55;;;43.85;;
63534;SDS011;55128;50.230;18.944;2022-09-27T05:15:39;61.30;;;40.20;;
63534;SDS011;55128;50.230;18.944;2022-09-27T05:20:41;58.30;;;34.92;;
63534;SDS011;55128;50.230;18.944;2022-09-27T05:25:41;64.10;;;37.90;;
63534;SDS011;55128;50.230;18.944;2022-09-27T05:30:42;64.45;;;39.75;;
63534;SDS011;55128;50.230;18.944;2022-09-27T05:35:42;54.03;;;39.28;;
63534;SDS011;55128;50.230;18.944;2022-09-27T05:40:50;51.47;;;35.45;;
63534;SDS011;55128;50.230;18.944;2022-09-27T05:45:50;57.17;;;34.60;;
63534;SDS011;55128;50.230;18.944;2022-09-27T05:50:52;49.35;;;33.80;;
63534;SDS011;55128;50.230;18.944;2022-09-27T05:55:52;42.45;;;29.05;;
63534;SDS011;55128;50.230;18.944;2022-09-27T06:00:53;38.20;;;28.20;;
63534;SDS011;55128;50.230;18.944;2022-09-27T06:05:53;22.10;;;19.80;;
63534;SDS011;55128;50.230;18.944;2022-09-27T06:10:59;20.95;;;18.85;;
63534;SDS011;55128;50.230;18.944;2022-09-27T06:16:03;19.00;;;16.95;;
63534;SDS011;55128;50.230;18.944;2022-09-27T06:21:05;18.02;;;16.13;;
63534;SDS011;55128;50.230;18.944;2022-09-27T06:26:06;17.40;;;15.25;;
63534;SDS011;55128;50.230;18.944;2022-09-27T06:31:07;14.27;;;12.98;;
63534;SDS011;55128;50.230;18.944;2022-09-27T06:36:08;13.95;;;11.32;;
63534;SDS011;55128;50.230;18.944;2022-09-27T06:41:08;10.80;;;9.65;;
63534;SDS011;55128;50.230;18.944;2022-09-27T06:46:09;11.30;;;10.10;;
63534;SDS011;55128;50.230;18.944;2022-09-27T06:51:10;11.43;;;10.23;;
63534;SDS011;55128;50.230;18.944;2022-09-27T06:56:11;11.90;;;10.70;;
63534;SDS011;55128;50.230;18.944;2022-09-27T07:01:11;11.73;;;10.63;;
63534;SDS011;55128;50.230;18.944;2022-09-27T07:06:17;11.68;;;10.57;;
63534;SDS011;55128;50.230;18.944;2022-09-27T07:11:21;10.85;;;9.75;;
63534;SDS011;55128;50.230;18.944;2022-09-27T07:16:25;11.43;;;10.23;;
63534;SDS011;55128;50.230;18.944;2022-09-27T07:21:25;9.48;;;8.55;;
63534;SDS011;55128;50.230;18.944;2022-09-27T07:26:26;10.48;;;9.40;;
63534;SDS011;55128;50.230;18.944;2022-09-27T07:31:27;10.77;;;9.68;;
63534;SDS011;55128;50.230;18.944;2022-09-27T07:36:29;9.20;;;8.20;;
63534;SDS011;55128;50.230;18.944;2022-09-27T07:41:30;8.75;;;7.85;;
63534;SDS011;55128;50.230;18.944;2022-09-27T07:46:31;7.75;;;6.93;;
63534;SDS011;55128;50.230;18.944;2022-09-27T07:51:31;9.07;;;7.32;;
63534;SDS011;55128;50.230;18.944;2022-09-27T07:56:32;7.82;;;7.03;;
63534;SDS011;55128;50.230;18.944;2022-09-27T08:01:33;7.80;;;7.03;;
63534;SDS011;55128;50.230;18.944;2022-09-27T08:06:34;7.53;;;6.63;;
63534;SDS011;55128;50.230;18.944;2022-09-27T08:11:34;7.22;;;6.50;;
63534;SDS011;55128;50.230;18.944;2022-09-27T08:16:36;8.90;;;6.13;;
63534;SDS011;55128;50.230;18.944;2022-09-27T08:21:37;6.47;;;5.88;;
63534;SDS011;55128;50.230;18.944;2022-09-27T08:26:47;6.38;;;5.78;;
63534;SDS011;55128;50.230;18.944;2022-09-27T08:31:49;6.38;;;5.78;;
63534;SDS011;55128;50.230;18.944;2022-09-27T08:36:50;6.13;;;5.50;;
63534;SDS011;55128;50.230;18.944;2022-09-27T08:52:00;5.88;;;4.68;;
63534;SDS011;55128;50.230;18.944;2022-09-27T08:57:10;6.28;;;4.90;;
63534;SDS011;55128;50.230;18.944;2022-09-27T09:02:17;6.40;;;4.43;;
63534;SDS011;55128;50.230;18.944;2022-09-27T09:33:42;6.75;;;4.35;;
63534;SDS011;55128;50.230;18.944;2022-09-27T09:38:50;3.88;;;3.40;;
63534;SDS011;55128;50.230;18.944;2022-09-27T09:44:05;4.57;;;3.35;;
63534;SDS011;55128;50.230;18.944;2022-09-27T09:49:21;4.55;;;3.47;;
63534;SDS011;55128;50.230;18.944;2022-09-27T09:54:36;3.35;;;3.00;;
63534;SDS011;55128;50.230;18.944;2022-09-27T09:59:47;5.45;;;3.50;;
63534;SDS011;55128;50.230;18.944;2022-09-27T10:04:54;4.45;;;2.97;;
63534;SDS011;55128;50.230;18.944;2022-09-27T10:09:56;3.83;;;2.92;;
63534;SDS011;55128;50.230;18.944;2022-09-27T10:15:02;5.22;;;2.97;;
63534;SDS011;55128;50.230;18.944;2022-09-27T10:20:04;4.07;;;3.25;;
63534;SDS011;55128;50.230;18.944;2022-09-27T10:25:06;3.97;;;3.15;;
63534;SDS011;55128;50.230;18.944;2022-09-27T10:35:36;4.50;;;3.55;;
63534;SDS011;55128;50.230;18.944;2022-09-27T10:40:40;3.80;;;3.38;;
63534;SDS011;55128;50.230;18.944;2022-09-27T10:45:42;6.20;;;5.18;;
63534;SDS011;55128;50.230;18.944;2022-09-27T10:50:53;5.15;;;3.88;;
63534;SDS011;55128;50.230;18.944;2022-09-27T10:55:57;4.78;;;3.50;;
63534;SDS011;55128;50.230;18.944;2022-09-27T11:01:02;5.90;;;3.95;;
63534;SDS011;55128;50.230;18.944;2022-09-27T11:11:26;6.28;;;4.00;;
63534;SDS011;55128;50.230;18.944;2022-09-27T11:27:24;4.75;;;3.00;;
63534;SDS011;55128;50.230;18.944;2022-09-27T11:32:42;5.65;;;3.50;;
63534;SDS011;55128;50.230;18.944;2022-09-27T11:37:57;4.60;;;3.60;;
63534;SDS011;55128;50.230;18.944;2022-09-27T11:53:54;5.03;;;3.72;;
63534;SDS011;55128;50.230;18.944;2022-09-27T12:10:03;5.95;;;3.53;;
63534;SDS011;55128;50.230;18.944;2022-09-27T12:15:19;4.47;;;3.33;;
63534;SDS011;55128;50.230;18.944;2022-09-27T12:20:30;3.90;;;3.50;;
63534;SDS011;55128;50.230;18.944;2022-09-27T12:25:36;4.13;;;3.67;;
63534;SDS011;55128;50.230;18.944;2022-09-27T12:30:40;6.43;;;4.60;;
63534;SDS011;55128;50.230;18.944;2022-09-27T12:35:46;4.97;;;4.35;;
63534;SDS011;55128;50.230;18.944;2022-09-27T12:40:52;6.82;;;4.13;;
63534;SDS011;55128;50.230;18.944;2022-09-27T12:51:16;4.88;;;3.90;;
63534;SDS011;55128;50.230;18.944;2022-09-27T13:01:31;5.22;;;4.35;;
63534;SDS011;55128;50.230;18.944;2022-09-27T13:12:20;4.85;;;3.97;;
63534;SDS011;55128;50.230;18.944;2022-09-27T13:17:33;5.75;;;4.25;;
63534;SDS011;55128;50.230;18.944;2022-09-27T13:22:39;5.50;;;3.90;;
63534;SDS011;55128;50.230;18.944;2022-09-27T13:27:40;4.97;;;3.95;;
63534;SDS011;55128;50.230;18.944;2022-09-27T13:38:21;4.28;;;3.53;;
63534;SDS011;55128;50.230;18.944;2022-09-27T13:43:35;4.93;;;4.20;;
63534;SDS011;55128;50.230;18.944;2022-09-27T13:49:32;4.88;;;3.58;;
63534;SDS011;55128;50.230;18.944;2022-09-27T13:59:41;7.63;;;6.82;;
63534;SDS011;55128;50.230;18.944;2022-09-27T14:04:49;11.52;;;8.77;;
63534;SDS011;55128;50.230;18.944;2022-09-27T14:09:51;9.18;;;6.35;;
63534;SDS011;55128;50.230;18.944;2022-09-27T14:14:53;6.40;;;5.55;;
63534;SDS011;55128;50.230;18.944;2022-09-27T14:19:55;5.00;;;2.90;;
63534;SDS011;55128;50.230;18.944;2022-09-27T14:24:56;4.75;;;2.30;;
63534;SDS011;55128;50.230;18.944;2022-09-27T14:30:08;5.43;;;4.22;;
63534;SDS011;55128;50.230;18.944;2022-09-27T14:35:15;3.92;;;2.15;;
63534;SDS011;55128;50.230;18.944;2022-09-27T14:40:39;2.80;;;1.73;;
63534;SDS011;55128;50.230;18.944;2022-09-27T14:45:43;4.60;;;3.00;;
63534;SDS011;55128;50.230;18.944;2022-09-27T14:50:57;5.40;;;3.10;;
63534;SDS011;55128;50.230;18.944;2022-09-27T14:56:29;5.35;;;3.20;;
63534;SDS011;55128;50.230;18.944;2022-09-27T15:01:34;4.70;;;3.10;;
63534;SDS011;55128;50.230;18.944;2022-09-27T15:06:37;6.05;;;3.60;;
63534;SDS011;55128;50.230;18.944;2022-09-27T15:11:39;6.40;;;3.78;;
63534;SDS011;55128;50.230;18.944;2022-09-27T15:16:41;6.18;;;4.43;;
63534;SDS011;55128;50.230;18.944;2022-09-27T15:21:44;7.43;;;5.20;;
63534;SDS011;55128;50.230;18.944;2022-09-27T15:26:45;9.27;;;7.20;;
63534;SDS011;55128;50.230;18.944;2022-09-27T15:31:56;8.38;;;5.80;;
63534;SDS011;55128;50.230;18.944;2022-09-27T15:37:05;8.05;;;5.07;;
63534;SDS011;55128;50.230;18.944;2022-09-27T15:42:07;6.63;;;4.63;;
63534;SDS011;55128;50.230;18.944;2022-09-27T15:52:43;9.45;;;4.60;;
63534;SDS011;55128;50.230;18.944;2022-09-27T15:58:04;7.07;;;4.60;;
63534;SDS011;55128;50.230;18.944;2022-09-27T16:03:09;9.73;;;6.32;;
63534;SDS011;55128;50.230;18.944;2022-09-27T16:08:10;10.30;;;6.90;;
63534;SDS011;55128;50.230;18.944;2022-09-27T16:13:13;8.82;;;6.13;;
63534;SDS011;55128;50.230;18.944;2022-09-27T16:18:14;10.52;;;7.18;;
63534;SDS011;55128;50.230;18.944;2022-09-27T16:23:14;10.52;;;7.78;;
63534;SDS011;55128;50.230;18.944;2022-09-27T16:28:16;12.13;;;8.45;;
63534;SDS011;55128;50.230;18.944;2022-09-27T16:33:20;12.83;;;8.50;;
63534;SDS011;55128;50.230;18.944;2022-09-27T16:38:23;10.55;;;8.70;;
63534;SDS011;55128;50.230;18.944;2022-09-27T16:43:26;11.73;;;9.00;;
63534;SDS011;55128;50.230;18.944;2022-09-27T16:48:30;11.75;;;9.15;;
63534;SDS011;55128;50.230;18.944;2022-09-27T16:53:31;14.32;;;10.95;;
63534;SDS011;55128;50.230;18.944;2022-09-27T16:58:32;13.32;;;11.35;;
63534;SDS011;55128;50.230;18.944;2022-09-27T17:03:33;18.27;;;13.98;;
63534;SDS011;55128;50.230;18.944;2022-09-27T17:08:34;15.02;;;12.55;;
63534;SDS011;55128;50.230;18.944;2022-09-27T17:13:35;15.50;;;12.43;;
63534;SDS011;55128;50.230;18.944;2022-09-27T17:18:36;16.65;;;12.98;;
63534;SDS011;55128;50.230;18.944;2022-09-27T17:23:37;14.52;;;12.02;;
63534;SDS011;55128;50.230;18.944;2022-09-27T17:28:40;13.00;;;11.13;;
63534;SDS011;55128;50.230;18.944;2022-09-27T17:33:42;15.80;;;11.15;;
63534;SDS011;55128;50.230;18.944;2022-09-27T17:38:45;18.30;;;12.07;;
63534;SDS011;55128;50.230;18.944;2022-09-27T17:43:50;14.57;;;11.82;;
63534;SDS011;55128;50.230;18.944;2022-09-27T17:48:55;18.20;;;12.63;;
63534;SDS011;55128;50.230;18.944;2022-09-27T17:54:15;15.50;;;12.57;;
63534;SDS011;55128;50.230;18.944;2022-09-27T17:59:17;18.92;;;13.32;;
63534;SDS011;55128;50.230;18.944;2022-09-27T18:04:19;21.33;;;13.48;;
63534;SDS011;55128;50.230;18.944;2022-09-27T18:09:19;20.75;;;14.07;;
63534;SDS011;55128;50.230;18.944;2022-09-27T18:14:21;22.95;;;15.10;;
63534;SDS011;55128;50.230;18.944;2022-09-27T18:19:23;18.02;;;13.07;;
63534;SDS011;55128;50.230;18.944;2022-09-27T18:24:23;19.83;;;12.80;;
63534;SDS011;55128;50.230;18.944;2022-09-27T18:29:25;19.83;;;13.32;;
63534;SDS011;55128;50.230;18.944;2022-09-27T18:34:27;18.50;;;13.45;;
63534;SDS011;55128;50.230;18.944;2022-09-27T18:39:28;19.08;;;14.23;;
63534;SDS011;55128;50.230;18.944;2022-09-27T18:44:28;17.35;;;12.57;;
63534;SDS011;55128;50.230;18.944;2022-09-27T18:49:29;13.90;;;10.68;;
63534;SDS011;55128;50.230;18.944;2022-09-27T18:54:32;14.45;;;11.32;;
63534;SDS011;55128;50.230;18.944;2022-09-27T18:59:35;14.48;;;11.18;;
63534;SDS011;55128;50.230;18.944;2022-09-27T19:04:36;16.58;;;11.75;;
63534;SDS011;55128;50.230;18.944;2022-09-27T19:09:37;15.63;;;11.10;;
63534;SDS011;55128;50.230;18.944;2022-09-27T19:14:37;16.05;;;10.75;;
63534;SDS011;55128;50.230;18.944;2022-09-27T19:19:38;14.18;;;10.60;;
63534;SDS011;55128;50.230;18.944;2022-09-27T19:24:39;14.90;;;10.70;;
63534;SDS011;55128;50.230;18.944;2022-09-27T19:29:39;14.55;;;10.25;;
63534;SDS011;55128;50.230;18.944;2022-09-27T19:34:40;13.65;;;10.55;;
63534;SDS011;55128;50.230;18.944;2022-09-27T19:39:40;12.60;;;9.20;;
63534;SDS011;55128;50.230;18.944;2022-09-27T19:44:41;16.35;;;9.57;;
63534;SDS011;55128;50.230;18.944;2022-09-27T19:49:42;11.75;;;8.93;;
63534;SDS011;55128;50.230;18.944;2022-09-27T19:54:43;12.25;;;9.50;;
63534;SDS011;55128;50.230;18.944;2022-09-27T19:59:44;13.35;;;9.65;;
63534;SDS011;55128;50.230;18.944;2022-09-27T20:04:44;10.75;;;7.35;;
63534;SDS011;55128;50.230;18.944;2022-09-27T20:09:46;12.02;;;8.60;;
63534;SDS011;55128;50.230;18.944;2022-09-27T20:14:47;11.45;;;8.52;;
63534;SDS011;55128;50.230;18.944;2022-09-27T20:19:48;12.85;;;9.38;;
63534;SDS011;55128;50.230;18.944;2022-09-27T20:24:49;29.38;;;18.08;;
63534;SDS011;55128;50.230;18.944;2022-09-27T20:29:49;31.48;;;20.73;;
63534;SDS011;55128;50.230;18.944;2022-09-27T20:34:50;21.35;;;13.60;;
63534;SDS011;55128;50.230;18.944;2022-09-27T20:39:51;19.33;;;12.93;;
63534;SDS011;55128;50.230;18.944;2022-09-27T20:44:52;14.40;;;9.77;;
63534;SDS011;55128;50.230;18.944;2022-09-27T20:49:53;18.63;;;10.93;;
63534;SDS011;55128;50.230;18.944;2022-09-27T20:54:53;16.42;;;11.65;;
63534;SDS011;55128;50.230;18.944;2022-09-27T20:59:54;19.15;;;13.15;;
63534;SDS011;55128;50.230;18.944;2022-09-27T21:04:54;15.60;;;12.57;;
63534;SDS011;55128;50.230;18.944;2022-09-27T21:09:56;20.08;;;13.15;;
63534;SDS011;55128;50.230;18.944;2022-09-27T21:14:56;17.75;;;12.90;;
63534;SDS011;55128;50.230;18.944;2022-09-27T21:19:57;15.07;;;12.13;;
63534;SDS011;55128;50.230;18.944;2022-09-27T21:24:58;19.33;;;14.38;;
63534;SDS011;55128;50.230;18.944;2022-09-27T21:29:58;15.35;;;13.75;;
63534;SDS011;55128;50.230;18.944;2022-09-27T21:35:00;14.88;;;12.35;;
63534;SDS011;55128;50.230;18.944;2022-09-27T21:40:02;15.27;;;13.18;;
63534;SDS011;55128;50.230;18.944;2022-09-27T21:45:04;17.30;;;13.20;;
63534;SDS011;55128;50.230;18.944;2022-09-27T21:50:05;18.50;;;13.88;;
63534;SDS011;55128;50.230;18.944;2022-09-27T21:55:06;16.35;;;12.80;;
63534;SDS011;55128;50.230;18.944;2022-09-27T22:00:07;16.55;;;12.57;;
63534;SDS011;55128;50.230;18.944;2022-09-27T22:05:08;17.08;;;13.07;;
63534;SDS011;55128;50.230;18.944;2022-09-27T22:10:09;15.40;;;12.13;;
63534;SDS011;55128;50.230;18.944;2022-09-27T22:15:09;16.40;;;12.73;;
63534;SDS011;55128;50.230;18.944;2022-09-27T22:20:10;16.65;;;11.80;;
63534;SDS011;55128;50.230;18.944;2022-09-27T22:25:11;15.77;;;11.43;;
63534;SDS011;55128;50.230;18.944;2022-09-27T22:30:12;15.07;;;10.70;;
63534;SDS011;55128;50.230;18.944;2022-09-27T22:35:13;13.73;;;11.23;;
63534;SDS011;55128;50.230;18.944;2022-09-27T22:40:14;14.25;;;9.98;;
63534;SDS011;55128;50.230;18.944;2022-09-27T22:45:14;12.68;;;10.25;;
63534;SDS011;55128;50.230;18.944;2022-09-27T22:50:17;13.57;;;10.48;;
63534;SDS011;55128;50.230;18.944;2022-09-27T22:55:17;12.77;;;10.23;;
63534;SDS011;55128;50.230;18.944;2022-09-27T23:00:18;13.63;;;9.93;;
63534;SDS011;55128;50.230;18.944;2022-09-27T23:05:19;13.82;;;9.80;;
63534;SDS011;55128;50.230;18.944;2022-09-27T23:10:19;13.15;;;10.73;;
63534;SDS011;55128;50.230;18.944;2022-09-27T23:15:22;15.93;;;11.23;;
63534;SDS011;55128;50.230;18.944;2022-09-27T23:20:23;13.88;;;11.00;;
63534;SDS011;55128;50.230;18.944;2022-09-27T23:25:23;16.20;;;10.75;;
63534;SDS011;55128;50.230;18.944;2022-09-27T23:30:25;13.15;;;10.23;;
63534;SDS011;55128;50.230;18.944;2022-09-27T23:35:27;11.63;;;10.15;;
63534;SDS011;55128;50.230;18.944;2022-09-27T23:40:30;13.60;;;10.35;;
63534;SDS011;55128;50.230;18.944;2022-09-27T23:45:30;13.77;;;10.90;;
63534;SDS011;55128;50.230;18.944;2022-09-27T23:50:32;15.60;;;11.45;;
63534;SDS011;55128;50.230;18.944;2022-09-27T23:55:33;14.48;;;10.98;;
